createdAt,value
2023-04-10T00:01:38.571Z,10.73
2023-04-10T00:04:06.279Z,11.63
2023-04-10T00:06:33.663Z,10.77
2023-04-10T00:09:02.510Z,10.20
2023-04-10T00:11:30.007Z,10.75
2023-04-10T00:13:57.333Z,11.38
2023-04-10T00:16:24.585Z,11.85
2023-04-10T00:18:51.919Z,11.63
2023-04-10T00:21:19.089Z,12.10
2023-04-10T00:23:46.375Z,11.18
2023-04-10T00:26:13.486Z,12.07
2023-04-10T00:28:42.359Z,12.77
2023-04-10T00:31:09.485Z,12.27
2023-04-10T00:33:37.172Z,13.15
2023-04-10T00:36:04.805Z,13.02
2023-04-10T00:38:32.215Z,12.68
2023-04-10T00:40:59.388Z,12.55
2023-04-10T00:43:27.276Z,12.23
2023-04-10T00:45:54.657Z,12.90
2023-04-10T00:48:22.397Z,11.50
2023-04-10T00:50:49.611Z,11.52
2023-04-10T00:53:17.254Z,11.52
2023-04-10T00:55:46.242Z,11.07
2023-04-10T00:58:14.617Z,11.57
2023-04-10T01:00:42.149Z,11.15
2023-04-10T01:03:13.105Z,11.50
2023-04-10T01:06:06.824Z,11.05
2023-04-10T01:08:45.133Z,11.52
2023-04-10T01:11:49.321Z,11.25
2023-04-10T01:14:30.521Z,10.98
2023-04-10T01:17:07.308Z,11.85
2023-04-10T01:20:18.533Z,12.45
2023-04-10T01:23:12.576Z,11.35
2023-04-10T01:25:54.417Z,12.27
2023-04-10T01:28:27.909Z,11.98
2023-04-10T01:31:01.290Z,12.35
2023-04-10T01:33:40.747Z,11.45
2023-04-10T01:36:11.338Z,11.10
2023-04-10T01:38:44.361Z,11.48
2023-04-10T01:41:13.262Z,12.48
2023-04-10T01:43:42.741Z,13.02
2023-04-10T01:46:12.554Z,13.35
2023-04-10T01:48:41.561Z,13.27
2023-04-10T01:51:11.265Z,12.73
2023-04-10T01:53:40.746Z,13.63
2023-04-10T01:56:09.401Z,13.57
2023-04-10T01:58:43.379Z,13.68
2023-04-10T02:01:22.367Z,14.00
2023-04-10T02:03:56.108Z,13.50
2023-04-10T02:06:50.511Z,13.30
2023-04-10T02:09:47.453Z,13.43
2023-04-10T02:12:30.271Z,13.95
2023-04-10T02:15:02.790Z,14.65
2023-04-10T02:17:32.692Z,14.45
2023-04-10T02:20:01.235Z,15.00
2023-04-10T02:22:29.118Z,15.43
2023-04-10T02:24:57.652Z,15.40
2023-04-10T02:27:32.646Z,15.93
2023-04-10T02:30:01.276Z,14.80
2023-04-10T02:32:30.101Z,15.77
2023-04-10T02:34:57.490Z,14.57
2023-04-10T02:37:26.226Z,14.20
2023-04-10T02:39:57.076Z,14.95
2023-04-10T02:42:26.373Z,14.88
2023-04-10T02:44:57.268Z,14.82
2023-04-10T02:47:25.910Z,15.07
2023-04-10T02:49:53.149Z,14.55
2023-04-10T02:52:20.807Z,14.38
2023-04-10T02:54:48.227Z,14.63
2023-04-10T02:57:16.740Z,14.63
2023-04-10T02:59:44.532Z,15.00
2023-04-10T03:02:13.150Z,16.35
2023-04-10T03:04:40.913Z,15.85
2023-04-10T03:07:08.640Z,17.25
2023-04-10T03:09:39.367Z,19.40
2023-04-10T03:12:06.781Z,19.42
2023-04-10T03:14:33.859Z,21.70
2023-04-10T03:17:01.298Z,21.98
2023-04-10T03:19:28.853Z,22.40
2023-04-10T03:21:56.267Z,23.17
2023-04-10T03:24:24.606Z,23.85
2023-04-10T03:26:52.494Z,24.27
2023-04-10T03:29:19.878Z,22.98
2023-04-10T03:31:47.317Z,24.88
2023-04-10T03:34:14.572Z,24.95
2023-04-10T03:36:41.973Z,25.35
2023-04-10T03:39:09.151Z,25.73
2023-04-10T03:41:36.847Z,26.42
2023-04-10T03:44:04.355Z,27.10
2023-04-10T03:46:31.818Z,26.23
2023-04-10T03:49:00.651Z,26.23
2023-04-10T03:51:31.567Z,26.25
2023-04-10T03:53:58.746Z,26.55
2023-04-10T03:56:26.114Z,25.45
2023-04-10T03:58:53.515Z,25.65
2023-04-10T04:01:22.029Z,25.30
2023-04-10T04:04:00.400Z,26.48
2023-04-10T04:06:47.103Z,25.67
2023-04-10T04:09:32.941Z,25.38
2023-04-10T04:12:35.962Z,23.75
2023-04-10T04:15:09.199Z,25.15
2023-04-10T04:17:52.199Z,23.98
2023-04-10T04:20:36.961Z,23.77
2023-04-10T04:23:22.607Z,24.05
2023-04-10T04:26:25.008Z,24.58
2023-04-10T04:29:15.660Z,25.47
2023-04-10T04:32:09.286Z,25.63
2023-04-10T04:34:57.472Z,25.13
2023-04-10T04:37:36.060Z,25.05
2023-04-10T04:40:35.803Z,24.42
2023-04-10T04:43:38.760Z,24.02
2023-04-10T04:46:25.104Z,24.80
2023-04-10T04:49:30.781Z,25.50
2023-04-10T04:52:17.254Z,25.67
2023-04-10T04:55:01.482Z,26.25
2023-04-10T04:57:37.112Z,25.33
2023-04-10T05:00:11.097Z,27.05
2023-04-10T05:02:58.847Z,26.38
2023-04-10T05:05:40.651Z,26.60
2023-04-10T05:08:46.903Z,27.13
2023-04-10T05:11:37.860Z,26.88
2023-04-10T05:14:20.480Z,25.67
2023-04-10T05:17:16.929Z,25.80
2023-04-10T05:20:06.073Z,26.77
2023-04-10T05:22:53.050Z,25.38
2023-04-10T05:25:41.008Z,24.55
2023-04-10T05:28:16.592Z,24.27
2023-04-10T05:31:19.049Z,25.83
2023-04-10T05:34:05.267Z,24.05
2023-04-10T05:36:39.623Z,24.73
2023-04-10T05:39:17.356Z,24.13
2023-04-10T05:42:03.596Z,23.95
2023-04-10T05:44:45.606Z,24.50
2023-04-10T05:47:36.267Z,23.45
2023-04-10T05:50:15.477Z,23.60
2023-04-10T05:53:00.422Z,22.55
2023-04-10T05:55:43.306Z,22.98
2023-04-10T05:58:28.589Z,22.83
2023-04-10T06:01:13.468Z,23.70
2023-04-10T06:03:52.665Z,22.50
2023-04-10T06:06:22.388Z,23.25
2023-04-10T06:08:50.180Z,22.30
2023-04-10T06:11:17.358Z,22.13
2023-04-10T06:13:48.904Z,22.95
2023-04-10T06:16:16.991Z,20.73
2023-04-10T06:18:46.534Z,21.65
2023-04-10T06:21:14.566Z,21.35
2023-04-10T06:23:42.134Z,22.60
2023-04-10T06:26:09.720Z,21.48
2023-04-10T06:28:37.696Z,20.63
2023-04-10T06:31:07.274Z,20.30
2023-04-10T06:33:37.090Z,20.10
2023-04-10T06:36:07.370Z,19.73
2023-04-10T06:38:42.551Z,20.67
2023-04-10T06:41:09.768Z,19.38
2023-04-10T06:43:39.327Z,20.38
2023-04-10T06:46:06.953Z,20.13
2023-04-10T06:48:34.930Z,19.48
2023-04-10T06:51:02.232Z,20.35
2023-04-10T06:53:30.064Z,19.88
2023-04-10T06:55:57.698Z,19.50
2023-04-10T06:58:25.192Z,20.05
2023-04-10T07:00:52.553Z,19.55
2023-04-10T07:03:20.114Z,19.42
2023-04-10T07:05:47.351Z,19.25
2023-04-10T07:08:14.659Z,19.65
2023-04-10T07:10:41.876Z,17.90
2023-04-10T07:13:09.160Z,19.15
2023-04-10T07:15:36.320Z,19.45
2023-04-10T07:18:03.900Z,19.50
2023-04-10T07:20:31.088Z,17.95
2023-04-10T07:22:58.398Z,18.92
2023-04-10T07:25:25.856Z,18.65
2023-04-10T07:27:53.259Z,18.30
2023-04-10T07:30:20.743Z,18.17
2023-04-10T07:32:48.504Z,19.08
2023-04-10T07:35:15.842Z,19.42
2023-04-10T07:37:44.170Z,19.77
2023-04-10T07:40:12.126Z,19.55
2023-04-10T07:42:39.564Z,20.15
2023-04-10T07:45:08.066Z,21.13
2023-04-10T07:47:35.395Z,20.73
2023-04-10T07:50:03.204Z,23.27
2023-04-10T07:52:30.851Z,24.10
2023-04-10T07:54:58.273Z,24.55
2023-04-10T07:57:25.615Z,24.08
2023-04-10T07:59:52.756Z,23.65
2023-04-10T08:02:20.396Z,22.50
2023-04-10T08:04:47.764Z,23.05
2023-04-10T08:07:15.304Z,21.63
2023-04-10T08:09:42.464Z,22.05
2023-04-10T08:12:09.748Z,22.88
2023-04-10T08:14:36.895Z,23.00
2023-04-10T08:17:04.437Z,23.60
2023-04-10T08:19:31.740Z,22.17
2023-04-10T08:21:59.007Z,23.00
2023-04-10T08:24:26.164Z,24.92
2023-04-10T08:26:53.442Z,23.88
2023-04-10T08:29:20.695Z,22.77
2023-04-10T08:31:47.990Z,24.20
2023-04-10T08:34:15.367Z,24.10
2023-04-10T08:36:42.773Z,24.92
2023-04-10T08:39:09.964Z,23.83
2023-04-10T08:41:37.358Z,25.17
2023-04-10T08:44:05.907Z,23.92
2023-04-10T08:46:37.540Z,23.40
2023-04-10T08:49:05.812Z,23.92
2023-04-10T08:51:42.933Z,24.10
2023-04-10T08:54:25.811Z,25.33
2023-04-10T08:56:55.871Z,24.95
2023-04-10T08:59:23.459Z,24.88
2023-04-10T09:01:50.940Z,25.60
2023-04-10T09:04:18.536Z,24.50
2023-04-10T09:06:47.198Z,26.38
2023-04-10T09:09:14.324Z,24.60
2023-04-10T09:11:56.372Z,26.10
2023-04-10T09:14:26.719Z,26.13
2023-04-10T09:17:10.417Z,24.88
2023-04-10T09:19:37.821Z,25.92
2023-04-10T09:22:05.439Z,26.20
2023-04-10T09:24:42.127Z,25.15
2023-04-10T09:27:10.743Z,26.63
2023-04-10T09:29:49.091Z,25.00
2023-04-10T09:32:48.939Z,26.95
2023-04-10T09:35:16.681Z,26.33
2023-04-10T09:37:46.614Z,28.15
2023-04-10T09:40:25.441Z,26.08
2023-04-10T09:42:55.931Z,27.92
2023-04-10T09:45:23.157Z,27.33
2023-04-10T09:48:08.053Z,27.73
2023-04-10T09:50:43.522Z,27.23
2023-04-10T09:53:19.265Z,25.83
2023-04-10T09:55:48.631Z,26.48
2023-04-10T09:58:17.998Z,26.98
2023-04-10T10:00:49.968Z,26.95
2023-04-10T10:03:21.399Z,27.48
2023-04-10T10:05:51.339Z,27.90
2023-04-10T10:08:19.034Z,26.60
2023-04-10T10:10:59.075Z,27.02
2023-04-10T10:13:44.480Z,28.48
2023-04-10T10:16:25.769Z,29.48
2023-04-10T10:19:16.659Z,31.63
2023-04-10T10:21:46.133Z,32.08
2023-04-10T10:24:15.906Z,31.30
2023-04-10T10:26:45.018Z,29.55
2023-04-10T10:29:17.223Z,28.77
2023-04-10T10:31:47.042Z,28.92
2023-04-10T10:34:16.499Z,28.02
2023-04-10T10:36:43.809Z,28.15
2023-04-10T10:39:39.575Z,27.20
2023-04-10T10:42:40.803Z,26.63
2023-04-10T10:45:50.387Z,26.83
2023-04-10T10:48:17.516Z,27.30
2023-04-10T10:51:00.914Z,25.83
2023-04-10T10:53:46.058Z,26.45
2023-04-10T10:56:35.063Z,25.50
2023-04-10T10:59:03.206Z,25.83
2023-04-10T11:01:30.581Z,27.60
2023-04-10T11:03:58.088Z,26.40
2023-04-10T11:06:51.303Z,26.17
2023-04-10T11:09:53.134Z,25.05
2023-04-10T11:12:26.158Z,25.55
2023-04-10T11:15:06.877Z,25.27
2023-04-10T11:17:52.468Z,24.98
2023-04-10T11:20:22.140Z,25.00
2023-04-10T11:23:11.246Z,26.15
2023-04-10T11:25:55.763Z,24.33
2023-04-10T11:28:32.798Z,25.30
2023-04-10T11:31:20.001Z,25.92
2023-04-10T11:34:05.207Z,25.90
2023-04-10T11:36:35.885Z,26.15
2023-04-10T11:39:09.923Z,28.40
2023-04-10T11:41:40.509Z,25.45
2023-04-10T11:44:11.656Z,25.65
2023-04-10T11:46:42.183Z,24.90
2023-04-10T11:49:11.104Z,24.90
2023-04-10T11:51:46.500Z,25.38
2023-04-10T11:54:18.622Z,25.98
2023-04-10T11:57:01.081Z,25.83
2023-04-10T11:59:31.001Z,25.35
2023-04-10T12:02:18.533Z,24.75
2023-04-10T12:04:46.789Z,24.65
2023-04-10T12:07:14.121Z,25.33
2023-04-10T12:09:42.697Z,24.75
2023-04-10T12:12:10.106Z,24.30
2023-04-10T12:14:40.647Z,24.75
2023-04-10T12:17:11.056Z,24.20
2023-04-10T12:19:40.129Z,23.02
2023-04-10T12:22:07.813Z,23.50
2023-04-10T12:24:53.730Z,24.40
2023-04-10T12:27:23.097Z,24.40
2023-04-10T12:29:53.100Z,23.50
2023-04-10T12:32:21.126Z,22.58
2023-04-10T12:34:57.524Z,22.00
2023-04-10T12:37:46.357Z,23.08
2023-04-10T12:40:14.608Z,23.52
2023-04-10T12:42:42.909Z,23.55
2023-04-10T12:45:13.823Z,22.95
2023-04-10T12:47:52.006Z,21.90
2023-04-10T12:50:23.548Z,22.90
2023-04-10T12:53:09.367Z,21.13
2023-04-10T12:55:37.555Z,23.77
2023-04-10T12:58:22.479Z,23.23
2023-04-10T13:00:50.438Z,22.02
2023-04-10T13:03:17.578Z,22.70
2023-04-10T13:05:46.009Z,23.88
2023-04-10T13:08:13.763Z,22.48
2023-04-10T13:10:42.242Z,21.73
2023-04-10T13:13:12.915Z,21.17
2023-04-10T13:15:40.959Z,21.08
2023-04-10T13:18:10.376Z,21.75
2023-04-10T13:20:40.139Z,22.48
2023-04-10T13:23:08.364Z,22.05
2023-04-10T13:25:42.910Z,21.35
2023-04-10T13:28:11.204Z,20.73
2023-04-10T13:30:41.383Z,20.73
2023-04-10T13:33:09.881Z,21.80
2023-04-10T13:35:37.556Z,21.90
2023-04-10T13:38:04.872Z,21.77
2023-04-10T13:40:32.319Z,20.77
2023-04-10T13:42:59.495Z,22.50
2023-04-10T13:45:27.016Z,21.20
2023-04-10T13:47:54.338Z,21.10
2023-04-10T13:50:21.814Z,21.05
2023-04-10T13:52:48.896Z,21.48
2023-04-10T13:55:16.466Z,21.25
2023-04-10T13:57:44.285Z,21.05
2023-04-10T14:00:12.424Z,20.92
2023-04-10T14:02:42.748Z,19.92
2023-04-10T14:05:10.916Z,19.88
2023-04-10T14:07:38.057Z,20.55
2023-04-10T14:10:06.994Z,19.98
2023-04-10T14:12:35.294Z,19.45
2023-04-10T14:15:04.000Z,19.55
2023-04-10T14:17:31.643Z,20.23
2023-04-10T14:19:59.063Z,20.58
2023-04-10T14:22:26.121Z,19.30
2023-04-10T14:25:05.141Z,20.92
2023-04-10T14:27:36.845Z,20.05
2023-04-10T14:30:05.312Z,21.40
2023-04-10T14:32:32.470Z,20.27
2023-04-10T14:34:59.810Z,20.58
2023-04-10T14:37:27.039Z,20.45
2023-04-10T14:39:54.295Z,20.10
2023-04-10T14:42:23.532Z,19.50
2023-04-10T14:44:50.838Z,19.02
2023-04-10T14:47:17.980Z,18.67
2023-04-10T14:49:45.412Z,21.52
2023-04-10T14:52:12.679Z,19.52
2023-04-10T14:54:40.231Z,18.17
2023-04-10T14:57:07.863Z,18.98
2023-04-10T14:59:35.678Z,17.42
2023-04-10T15:02:02.752Z,17.65
2023-04-10T15:04:30.273Z,18.67
2023-04-10T15:06:57.528Z,19.65
2023-04-10T15:09:25.231Z,19.92
2023-04-10T15:11:52.656Z,19.40
2023-04-10T15:14:19.991Z,17.88
2023-04-10T15:16:47.367Z,17.60
2023-04-10T15:19:14.732Z,17.42
2023-04-10T15:21:41.922Z,19.58
2023-04-10T15:24:09.236Z,20.52
2023-04-10T15:26:36.555Z,19.00
2023-04-10T15:29:04.108Z,18.27
2023-04-10T15:31:31.253Z,20.38
2023-04-10T15:33:58.571Z,18.88
2023-04-10T15:36:25.815Z,18.88
2023-04-10T15:38:53.283Z,20.48
2023-04-10T15:41:20.414Z,19.60
2023-04-10T15:43:48.604Z,19.45
2023-04-10T15:46:18.969Z,19.48
2023-04-10T15:48:46.424Z,19.75
2023-04-10T15:51:14.154Z,19.65
2023-04-10T15:53:41.695Z,21.27
2023-04-10T15:56:09.072Z,20.73
2023-04-10T15:58:36.767Z,20.65
2023-04-10T16:01:04.518Z,19.27
2023-04-10T16:03:32.154Z,19.15
2023-04-10T16:05:59.589Z,19.23
2023-04-10T16:08:27.558Z,19.85
2023-04-10T16:10:55.801Z,18.85
2023-04-10T16:13:23.355Z,18.23
2023-04-10T16:15:51.520Z,17.83
2023-04-10T16:18:19.196Z,18.00
2023-04-10T16:20:46.391Z,18.40
2023-04-10T16:23:13.688Z,17.42
2023-04-10T16:25:40.822Z,17.23
2023-04-10T16:28:09.296Z,17.55
2023-04-10T16:30:39.526Z,16.13
2023-04-10T16:33:07.336Z,16.83
2023-04-10T16:35:34.722Z,16.90
2023-04-10T16:38:02.575Z,15.90
2023-04-10T16:40:32.931Z,16.27
2023-04-10T16:43:01.843Z,15.02
2023-04-10T16:45:29.786Z,15.52
2023-04-10T16:47:57.656Z,14.98
2023-04-10T16:50:24.909Z,14.23
2023-04-10T16:52:52.745Z,13.57
2023-04-10T16:55:20.194Z,13.73
2023-04-10T16:57:47.904Z,14.05
2023-04-10T17:00:15.442Z,13.52
2023-04-10T17:02:43.176Z,13.35
2023-04-10T17:05:11.389Z,14.00
2023-04-10T17:07:38.934Z,13.73
2023-04-10T17:10:06.847Z,14.05
2023-04-10T17:12:34.376Z,13.15
2023-04-10T17:15:01.960Z,14.43
2023-04-10T17:17:29.766Z,13.65
2023-04-10T17:19:58.452Z,13.40
2023-04-10T17:22:26.162Z,13.43
2023-04-10T17:24:53.439Z,13.65
2023-04-10T17:27:20.878Z,12.73
2023-04-10T17:29:48.331Z,13.80
2023-04-10T17:32:15.661Z,13.35
2023-04-10T17:34:42.854Z,13.55
2023-04-10T17:37:10.253Z,13.40
2023-04-10T17:39:37.284Z,12.98
2023-04-10T17:42:05.085Z,13.48
2023-04-10T17:44:32.322Z,13.98
2023-04-10T17:47:01.358Z,14.05
2023-04-10T17:49:28.514Z,13.60
2023-04-10T17:51:55.841Z,13.80
2023-04-10T17:54:22.899Z,13.63
2023-04-10T17:56:52.892Z,13.65
2023-04-10T17:59:20.194Z,13.77
2023-04-10T18:01:48.213Z,12.68
2023-04-10T18:04:16.084Z,13.05
2023-04-10T18:06:43.711Z,13.52
2023-04-10T18:09:11.458Z,29.48
2023-04-10T18:11:40.604Z,39.20
2023-04-10T18:14:07.881Z,34.63
2023-04-10T18:16:36.091Z,27.10
2023-04-10T18:19:03.530Z,37.50
2023-04-10T18:21:31.483Z,28.95
2023-04-10T18:23:58.919Z,17.33
2023-04-10T18:26:29.682Z,11.85
2023-04-10T18:28:57.478Z,13.18
2023-04-10T18:31:24.979Z,10.15
2023-04-10T18:34:00.226Z,9.07
2023-04-10T18:36:34.741Z,8.90
2023-04-10T18:39:02.098Z,7.30
2023-04-10T18:41:29.740Z,6.70
2023-04-10T18:44:05.026Z,6.13
2023-04-10T18:46:33.754Z,5.82
2023-04-10T18:49:01.597Z,5.00
2023-04-10T18:51:34.983Z,4.75
2023-04-10T18:54:06.115Z,4.20
2023-04-10T18:56:35.661Z,4.57
2023-04-10T18:59:04.225Z,4.22
2023-04-10T19:01:31.992Z,3.50
2023-04-10T19:03:59.724Z,3.50
2023-04-10T19:06:27.993Z,3.50
2023-04-10T19:08:55.796Z,3.67
2023-04-10T19:11:23.238Z,3.97
2023-04-10T19:13:50.476Z,3.60
2023-04-10T19:16:19.411Z,3.60
2023-04-10T19:18:49.842Z,3.80
2023-04-10T19:21:17.605Z,3.25
2023-04-10T19:23:45.287Z,3.90
2023-04-10T19:26:12.954Z,3.72
2023-04-10T19:28:40.427Z,3.60
2023-04-10T19:31:09.025Z,3.30
2023-04-10T19:33:36.411Z,3.38
2023-04-10T19:36:05.128Z,3.35
2023-04-10T19:38:34.967Z,3.10
2023-04-10T19:41:02.675Z,3.35
2023-04-10T19:43:29.940Z,3.47
2023-04-10T19:45:59.681Z,3.13
2023-04-10T19:48:27.704Z,2.78
2023-04-10T19:50:55.340Z,2.80
2023-04-10T19:53:22.590Z,3.30
2023-04-10T19:55:50.109Z,2.88
2023-04-10T19:58:35.624Z,2.80
2023-04-10T20:01:12.332Z,2.70
2023-04-10T20:03:39.764Z,2.72
2023-04-10T20:06:08.235Z,2.70
2023-04-10T20:08:36.506Z,2.67
2023-04-10T20:11:07.099Z,2.50
2023-04-10T20:13:34.790Z,2.60
2023-04-10T20:16:02.673Z,2.95
2023-04-10T20:18:31.923Z,2.45
2023-04-10T20:20:59.414Z,2.65
2023-04-10T20:23:26.765Z,2.45
2023-04-10T20:25:54.121Z,2.30
2023-04-10T20:28:21.461Z,2.47
2023-04-10T20:30:48.761Z,2.90
2023-04-10T20:33:15.793Z,2.60
2023-04-10T20:35:43.161Z,2.65
2023-04-10T20:38:10.618Z,2.80
2023-04-10T20:40:37.882Z,2.70
2023-04-10T20:43:10.921Z,2.90
2023-04-10T20:45:39.358Z,3.00
2023-04-10T20:48:08.126Z,3.08
2023-04-10T20:50:36.987Z,3.40
2023-04-10T20:53:04.123Z,3.17
2023-04-10T20:55:31.499Z,2.92
2023-04-10T20:57:58.678Z,3.60
2023-04-10T21:00:26.164Z,4.30
2023-04-10T21:02:53.330Z,3.85
2023-04-10T21:05:21.148Z,3.90
2023-04-10T21:07:48.404Z,3.70
2023-04-10T21:10:15.989Z,3.40
2023-04-10T21:12:43.401Z,3.35
2023-04-10T21:15:11.096Z,3.65
2023-04-10T21:17:38.193Z,3.17
2023-04-10T21:20:06.435Z,3.20
2023-04-10T21:22:33.690Z,2.90
2023-04-10T21:25:01.032Z,2.80
2023-04-10T21:27:28.216Z,2.90
2023-04-10T21:29:55.686Z,2.50
2023-04-10T21:32:22.826Z,2.70
2023-04-10T21:34:50.255Z,2.45
2023-04-10T21:37:17.353Z,2.35
2023-04-10T21:39:44.776Z,2.20
2023-04-10T21:42:11.947Z,2.33
2023-04-10T21:44:39.372Z,1.90
2023-04-10T21:47:06.603Z,2.22
2023-04-10T21:49:34.252Z,2.13
2023-04-10T21:52:06.684Z,2.30
2023-04-10T21:54:34.077Z,2.30
2023-04-10T21:57:02.299Z,1.98
2023-04-10T21:59:33.179Z,2.55
2023-04-10T22:02:00.392Z,2.40
2023-04-10T22:04:27.772Z,2.50
2023-04-10T22:06:54.852Z,2.30
2023-04-10T22:09:22.517Z,2.60
2023-04-10T22:11:49.738Z,2.40
2023-04-10T22:14:19.355Z,2.60
2023-04-10T22:16:47.946Z,2.53
2023-04-10T22:19:15.464Z,2.35
2023-04-10T22:21:42.623Z,2.30
2023-04-10T22:24:10.159Z,2.45
2023-04-10T22:26:37.291Z,2.15
2023-04-10T22:29:04.903Z,2.00
2023-04-10T22:31:32.124Z,2.30
2023-04-10T22:33:59.421Z,2.22
2023-04-10T22:36:35.803Z,2.22
2023-04-10T22:39:04.040Z,2.05
2023-04-10T22:41:31.803Z,2.50
2023-04-10T22:43:59.510Z,2.85
2023-04-10T22:46:26.789Z,2.40
2023-04-10T22:48:55.014Z,2.75
2023-04-10T22:51:22.302Z,2.65
2023-04-10T22:53:50.038Z,2.67
2023-04-10T22:56:18.206Z,2.72
2023-04-10T22:58:45.620Z,2.30
2023-04-10T23:01:13.320Z,2.88
2023-04-10T23:03:41.141Z,2.80
2023-04-10T23:06:08.995Z,2.90
2023-04-10T23:08:37.154Z,2.50
2023-04-10T23:11:04.464Z,2.92
2023-04-10T23:13:32.131Z,2.85
2023-04-10T23:15:59.208Z,2.67
2023-04-10T23:18:26.670Z,2.85
2023-04-10T23:20:53.898Z,2.85
2023-04-10T23:23:21.344Z,2.88
2023-04-10T23:25:58.863Z,3.47
2023-04-10T23:28:27.508Z,4.03
2023-04-10T23:30:54.704Z,3.30
2023-04-10T23:33:22.277Z,4.20
2023-04-10T23:35:49.479Z,3.35
2023-04-10T23:38:16.883Z,3.30
2023-04-10T23:40:43.962Z,3.50
2023-04-10T23:43:11.379Z,3.10
2023-04-10T23:45:38.528Z,3.20
2023-04-10T23:48:08.834Z,3.13
2023-04-10T23:50:36.084Z,3.50
2023-04-10T23:53:03.549Z,3.40
2023-04-10T23:55:30.679Z,3.80
2023-04-10T23:57:58.000Z,3.33
